Bookmark and Share
Track history (hours):
 

Oceanographic research ship Tridens (Netherlands)

Detailed information on ship capabilities available from University of Delaware's Ocean Information Center.

Last reported at 2014-Apr-10 09:30 UTC. Time now 2014-Apr-16 13:40 UTC.
Position N 52°06' E 004°16'.

Length 74 m; beam 14 m.

Type: Ship. MMSI: 244033000.

NotesDate/timePositionNaut miles runAvg speedWind from/ knotsBaromVisibWave heightAir tempDewpointWater temp
2014-Apr-10 09:30N 52°06' E 004°16'0 0.4
2014-Apr-10 08:33N 52°06' E 004°16'4 4.5
2014-Apr-10 07:33N 52°09' E 004°10'2 2.0
2014-Apr-10 06:33N 52°10' E 004°07'4 4.3
2014-Apr-10 05:33N 52°12' E 004°02'8 8.1
2014-Apr-10 04:33N 52°15' E 003°49'9 9.2
2014-Apr-10 03:33N 52°18' E 003°35'60 8.0
2014-Apr-09 20:04N 52°48' E 002°09'6 8.2
2014-Apr-09 19:23N 52°52' E 002°03'7 8.6
2014-Apr-09 18:33N 52°56' E 001°54'9 9.1
2014-Apr-09 17:33N 53°02' E 001°42'9 9.3
2014-Apr-09 16:33N 53°08' E 001°31'10 9.6
2014-Apr-09 15:33N 53°15' E 001°19'37 8.9
2014-Apr-09 11:28N 53°39' E 000°33'8 8.5
2014-Apr-09 10:33N 53°46' E 000°27'8 8.3
2014-Apr-09 09:32N 53°53' E 000°20'8 8.2
2014-Apr-09 08:33N 54°00' E 000°13'9 8.8
2014-Apr-09 07:33N 54°08' E 000°07'9 9.0
2014-Apr-09 06:33N 54°16' E 000°00'9 9.1
2014-Apr-09 05:33N 54°24' W 000°07'10 9.6
2014-Apr-09 04:33N 54°32' W 000°16'10 9.8
2014-Apr-09 03:33N 54°40' W 000°25'1010.1
2014-Apr-09 02:31N 54°49' W 000°34'9 9.2
2014-Apr-09 01:33N 54°58' W 000°40'9 8.9
2014-Apr-09 00:33N 55°05' W 000°48'134 8.8
2014-Apr-08 09:18N 57°15' W 001°43'6 7.7
2014-Apr-08 08:33N 57°21' W 001°42'9 9.1
2014-Apr-08 07:33N 57°30' W 001°42'10 9.5
2014-Apr-08 06:33N 57°40' W 001°44'7014.0
2014-Apr-08 01:33N 58°38' W 002°58'1414.0
2014-Apr-08 00:33N 58°44' W 003°22'1514.9
2014-Apr-07 23:33N 58°45' W 003°50'1514.8
2014-Apr-07 22:33N 58°46' W 004°19'73 4.9
2014-Apr-07 07:33N 58°12' W 006°23'0 0.1
2014-Apr-07 06:09N 58°12' W 006°23'0 0.0
2014-Apr-07 05:27N 58°12' W 006°23'0 0.0
2014-Apr-07 04:33N 58°12' W 006°23'0 0.0
2014-Apr-07 03:33N 58°12' W 006°23'0 0.0
2014-Apr-07 02:21N 58°12' W 006°23'0 0.0
2014-Apr-07 01:33N 58°12' W 006°23'0 0.0
2014-Apr-07 00:33N 58°12' W 006°23'0 0.0
2014-Apr-06 23:33N 58°12' W 006°23'0 0.0
2014-Apr-06 22:33N 58°12' W 006°23'0 0.0
2014-Apr-06 21:32N 58°12' W 006°23'0 0.0
2014-Apr-06 20:32N 58°12' W 006°23'0 0.0
2014-Apr-06 19:32N 58°12' W 006°23'0 0.0
2014-Apr-06 18:32N 58°12' W 006°23'0 0.0
2014-Apr-06 17:33N 58°12' W 006°23'0 0.0
2014-Apr-06 16:32N 58°12' W 006°23'0 0.0
2014-Apr-06 15:32N 58°12' W 006°23'0 0.0
2014-Apr-06 14:33N 58°12' W 006°23'0 0.0
2014-Apr-06 13:32N 58°12' W 006°23'0 0.0
2014-Apr-06 12:29N 58°12' W 006°23'0 0.0
2014-Apr-06 11:29N 58°12' W 006°23'0 0.0
2014-Apr-06 10:20N 58°12' W 006°23'0 0.0
2014-Apr-06 09:32N 58°12' W 006°23'0 0.0
2014-Apr-06 08:32N 58°12' W 006°23'0 0.0
2014-Apr-06 07:32N 58°12' W 006°23'0 0.0
2014-Apr-06 06:32N 58°12' W 006°23'0 0.0
2014-Apr-06 05:32N 58°12' W 006°23'0 0.0
2014-Apr-06 04:32N 58°12' W 006°23'0 0.0
2014-Apr-06 03:32N 58°12' W 006°23'0 0.0
2014-Apr-06 02:29N 58°12' W 006°23'0 0.0
2014-Apr-06 01:29N 58°12' W 006°23'0 0.0
2014-Apr-06 00:29N 58°12' W 006°23'0 0.0
2014-Apr-05 23:29N 58°12' W 006°23'0 0.0
2014-Apr-05 22:32N 58°12' W 006°23'0 0.0
2014-Apr-05 21:32N 58°12' W 006°23'0 0.0
2014-Apr-05 20:32N 58°12' W 006°23'0 0.0
2014-Apr-05 19:27N 58°12' W 006°23'0 0.0
2014-Apr-05 18:32N 58°12' W 006°23'0 0.0
2014-Apr-05 17:32N 58°12' W 006°23'0 0.0
2014-Apr-05 16:29N 58°12' W 006°23'0 0.0
2014-Apr-05 15:32N 58°12' W 006°23'0 0.0
2014-Apr-05 14:27N 58°12' W 006°23'0 0.0
2014-Apr-05 13:32N 58°12' W 006°23'0 0.0
2014-Apr-05 12:33N 58°12' W 006°23'7 7.2
2014-Apr-05 11:33N 58°11' W 006°10'1313.1
2014-Apr-05 10:33N 58°24' W 006°08'  

Dump ship's entire track history

sailing weather and tide predictions

Tridens — PBVO — position and weather